createdAt,value
2018-12-21T00:01:20.691Z,5.32
2018-12-21T00:03:48.303Z,5.35
2018-12-21T00:06:15.868Z,5.34
2018-12-21T00:08:43.445Z,5.30
2018-12-21T00:11:11.033Z,5.38
2018-12-21T00:13:38.652Z,5.36
2018-12-21T00:16:06.206Z,5.32
2018-12-21T00:18:33.808Z,5.26
2018-12-21T00:21:01.362Z,5.25
2018-12-21T00:23:29.043Z,5.20
2018-12-21T00:25:56.663Z,5.24
2018-12-21T00:28:24.247Z,5.23
2018-12-21T00:30:57.457Z,5.23
2018-12-21T00:33:30.657Z,5.20
2018-12-21T00:36:03.828Z,5.18
2018-12-21T00:38:36.989Z,5.18
2018-12-21T00:41:10.065Z,5.15
2018-12-21T00:43:39.712Z,5.15
2018-12-21T00:46:09.574Z,5.09
2018-12-21T00:48:37.176Z,5.05
2018-12-21T00:51:04.908Z,5.06
2018-12-21T00:53:32.813Z,5.01
2018-12-21T00:56:00.403Z,4.99
2018-12-21T00:58:27.961Z,4.97
2018-12-21T01:00:55.543Z,4.96
2018-12-21T01:03:23.118Z,4.95
2018-12-21T01:05:50.705Z,4.96
2018-12-21T01:08:18.339Z,4.98
2018-12-21T01:10:46.000Z,4.96
2018-12-21T01:13:13.614Z,4.97
2018-12-21T01:15:41.268Z,5.03
2018-12-21T01:18:08.872Z,5.06
2018-12-21T01:20:36.950Z,5.03
2018-12-21T01:23:04.608Z,5.01
2018-12-21T01:25:32.159Z,4.97
2018-12-21T01:27:59.774Z,4.99
2018-12-21T01:30:27.480Z,4.99
2018-12-21T01:32:55.179Z,4.99
2018-12-21T01:35:23.806Z,5.07
2018-12-21T01:37:51.451Z,5.06
2018-12-21T01:40:19.053Z,5.04
2018-12-21T01:42:46.689Z,5.06
2018-12-21T01:45:14.294Z,5.06
2018-12-21T01:47:41.838Z,5.07
2018-12-21T01:50:09.425Z,5.10
2018-12-21T01:52:37.054Z,5.17
2018-12-21T01:55:05.136Z,5.14
2018-12-21T01:57:32.732Z,5.15
2018-12-21T02:00:00.329Z,5.17
2018-12-21T02:02:27.936Z,5.23
2018-12-21T02:04:56.208Z,5.23
2018-12-21T02:07:23.768Z,5.23
2018-12-21T02:09:51.350Z,5.27
2018-12-21T02:12:18.957Z,5.26
2018-12-21T02:14:46.544Z,5.26
2018-12-21T02:17:14.282Z,5.27
2018-12-21T02:19:41.872Z,5.28
2018-12-21T02:22:09.435Z,5.32
2018-12-21T02:24:36.998Z,5.34
2018-12-21T02:27:04.570Z,5.37
2018-12-21T02:29:32.142Z,5.36
2018-12-21T02:31:59.781Z,5.37
2018-12-21T02:34:27.361Z,5.41
2018-12-21T02:36:55.283Z,5.48
2018-12-21T02:39:22.865Z,5.46
2018-12-21T02:41:50.508Z,5.52
2018-12-21T02:44:18.171Z,5.48
2018-12-21T02:46:45.759Z,5.48
2018-12-21T02:49:13.412Z,5.52
2018-12-21T02:51:41.369Z,5.49
2018-12-21T02:54:08.971Z,5.52
2018-12-21T02:56:36.622Z,5.51
2018-12-21T02:59:04.312Z,5.54
2018-12-21T03:01:31.931Z,5.56
2018-12-21T03:03:59.606Z,5.54
2018-12-21T03:06:27.260Z,5.54
2018-12-21T03:08:54.902Z,5.55
2018-12-21T03:11:22.450Z,5.56
2018-12-21T03:13:50.013Z,5.62
2018-12-21T03:16:17.591Z,5.59
2018-12-21T03:18:45.196Z,5.59
2018-12-21T03:21:13.003Z,5.55
2018-12-21T03:23:40.649Z,5.57
2018-12-21T03:26:08.242Z,5.54
2018-12-21T03:28:35.858Z,5.55
2018-12-21T03:31:03.513Z,5.52
2018-12-21T03:33:31.216Z,5.52
2018-12-21T03:35:58.819Z,5.60
2018-12-21T03:38:26.394Z,5.57
2018-12-21T03:40:54.241Z,5.54
2018-12-21T03:43:21.834Z,5.55
2018-12-21T03:45:49.445Z,5.52
2018-12-21T03:48:17.098Z,5.53
2018-12-21T03:50:44.671Z,5.54
2018-12-21T03:53:12.261Z,5.54
2018-12-21T03:55:39.832Z,5.56
2018-12-21T03:58:07.422Z,5.57
2018-12-21T04:00:34.984Z,5.58
2018-12-21T04:03:02.617Z,5.57
2018-12-21T04:05:30.557Z,5.61
2018-12-21T04:07:58.107Z,5.61
2018-12-21T04:10:25.752Z,5.59
2018-12-21T04:12:53.346Z,5.62
2018-12-21T04:15:20.898Z,5.60
2018-12-21T04:17:48.485Z,5.63
2018-12-21T04:20:16.072Z,5.61
2018-12-21T04:22:43.680Z,5.58
2018-12-21T04:25:11.261Z,5.60
2018-12-21T04:27:38.860Z,5.60
2018-12-21T04:30:08.231Z,5.59
2018-12-21T04:32:35.799Z,5.58
2018-12-21T04:35:03.657Z,5.60
2018-12-21T04:37:31.265Z,5.61
2018-12-21T04:39:58.876Z,5.62
2018-12-21T04:42:26.453Z,5.64
2018-12-21T04:44:54.078Z,5.58
2018-12-21T04:47:21.647Z,5.61
2018-12-21T04:49:49.614Z,5.62
2018-12-21T04:52:17.189Z,5.62
2018-12-21T04:54:44.823Z,5.61
2018-12-21T04:57:12.371Z,5.63
2018-12-21T04:59:39.987Z,5.65
2018-12-21T05:02:07.581Z,5.61
2018-12-21T05:04:35.489Z,5.64
2018-12-21T05:07:12.035Z,5.60
2018-12-21T05:09:32.760Z,5.62
2018-12-21T05:12:00.425Z,5.62
2018-12-21T05:14:28.086Z,5.61
2018-12-21T05:16:55.707Z,5.65
2018-12-21T05:19:24.127Z,5.65
2018-12-21T05:21:51.960Z,5.65
2018-12-21T05:24:19.558Z,5.65
2018-12-21T05:26:47.135Z,5.62
2018-12-21T05:29:14.724Z,5.66
2018-12-21T05:31:42.313Z,5.64
2018-12-21T05:34:10.034Z,5.67
2018-12-21T05:36:37.669Z,5.62
2018-12-21T05:39:05.880Z,5.63
2018-12-21T05:41:33.502Z,5.64
2018-12-21T05:44:01.042Z,5.71
2018-12-21T05:46:28.636Z,5.69
2018-12-21T05:48:56.182Z,5.66
2018-12-21T05:51:23.895Z,5.70
2018-12-21T05:53:51.517Z,5.68
2018-12-21T05:56:19.094Z,5.69
2018-12-21T05:58:46.779Z,5.68
2018-12-21T06:01:14.425Z,5.69
2018-12-21T06:03:41.987Z,5.67
2018-12-21T06:06:09.812Z,5.70
2018-12-21T06:08:37.394Z,5.70
2018-12-21T06:11:05.013Z,5.70
2018-12-21T06:13:32.914Z,5.71
2018-12-21T06:16:00.780Z,5.70
2018-12-21T06:18:29.091Z,5.74
2018-12-21T06:20:56.693Z,5.71
2018-12-21T06:23:24.275Z,5.71
2018-12-21T06:25:51.921Z,5.75
2018-12-21T06:28:19.489Z,5.74
2018-12-21T06:30:47.116Z,5.76
2018-12-21T06:33:14.702Z,5.75
2018-12-21T06:35:42.328Z,5.77
2018-12-21T06:38:09.871Z,5.79
2018-12-21T06:40:37.515Z,5.85
2018-12-21T06:43:05.144Z,5.86
2018-12-21T06:45:32.770Z,5.86
2018-12-21T06:48:00.347Z,5.88
2018-12-21T06:50:27.944Z,5.93
2018-12-21T06:52:55.675Z,5.90
2018-12-21T06:55:23.397Z,5.93
2018-12-21T06:57:51.028Z,5.91
2018-12-21T07:00:19.039Z,5.92
2018-12-21T07:02:46.655Z,5.91
2018-12-21T07:05:14.271Z,5.90
2018-12-21T07:07:41.941Z,5.92
2018-12-21T07:10:10.183Z,5.90
2018-12-21T07:12:37.831Z,5.98
2018-12-21T07:15:06.765Z,5.94
2018-12-21T07:17:34.423Z,5.90
2018-12-21T07:20:02.168Z,5.92
2018-12-21T07:22:29.783Z,5.91
2018-12-21T07:24:57.646Z,5.88
2018-12-21T07:27:25.271Z,5.89
2018-12-21T07:29:52.870Z,5.88
2018-12-21T07:32:20.516Z,5.89
2018-12-21T07:34:48.102Z,5.89
2018-12-21T07:37:15.671Z,5.86
2018-12-21T07:39:43.255Z,5.82
2018-12-21T07:42:10.886Z,5.84
2018-12-21T07:44:38.432Z,5.85
2018-12-21T07:47:06.389Z,5.81
2018-12-21T07:49:34.019Z,5.84
2018-12-21T07:52:01.662Z,5.85
2018-12-21T07:54:29.279Z,5.90
2018-12-21T07:56:56.848Z,5.91
2018-12-21T07:59:24.698Z,5.97
2018-12-21T08:01:52.340Z,5.92
2018-12-21T08:04:19.922Z,5.91
2018-12-21T08:06:47.586Z,5.94
2018-12-21T08:09:15.178Z,5.88
2018-12-21T08:11:42.743Z,5.90
2018-12-21T08:14:10.438Z,5.96
2018-12-21T08:16:38.042Z,5.93
2018-12-21T08:19:05.613Z,5.90
2018-12-21T08:21:33.230Z,5.94
2018-12-21T08:24:00.794Z,5.91
2018-12-21T08:26:28.532Z,5.92
2018-12-21T08:28:56.162Z,5.95
2018-12-21T08:31:23.730Z,5.96
2018-12-21T08:33:51.307Z,5.99
2018-12-21T08:36:18.967Z,6.02
2018-12-21T08:38:46.578Z,6.04
2018-12-21T08:41:14.159Z,6.06
2018-12-21T08:43:41.819Z,6.05
2018-12-21T08:46:09.400Z,6.07
2018-12-21T08:48:37.011Z,6.14
2018-12-21T08:51:05.182Z,6.13
2018-12-21T08:53:32.744Z,6.13
2018-12-21T08:56:00.316Z,6.11
2018-12-21T08:58:28.308Z,6.10
2018-12-21T09:00:55.927Z,6.13
2018-12-21T09:03:23.591Z,6.12
2018-12-21T09:05:51.292Z,6.11
2018-12-21T09:08:19.157Z,6.13
2018-12-21T09:10:46.802Z,6.13
2018-12-21T09:13:14.435Z,6.19
2018-12-21T09:15:42.088Z,6.22
2018-12-21T09:18:09.646Z,6.20
2018-12-21T09:20:37.220Z,6.23
2018-12-21T09:23:04.798Z,6.26
2018-12-21T09:25:32.388Z,6.33
2018-12-21T09:27:59.999Z,6.39
2018-12-21T09:30:27.632Z,6.32
2018-12-21T09:32:55.475Z,6.38
2018-12-21T09:35:23.048Z,6.42
2018-12-21T09:37:50.658Z,6.44
2018-12-21T09:40:18.366Z,6.46
2018-12-21T09:42:46.097Z,6.52
2018-12-21T09:45:13.748Z,6.51
2018-12-21T09:47:41.450Z,6.52
2018-12-21T09:50:09.055Z,6.59
2018-12-21T09:52:36.655Z,6.57
2018-12-21T09:55:04.688Z,6.56
2018-12-21T09:57:32.265Z,6.54
2018-12-21T09:59:59.874Z,6.60
2018-12-21T10:02:35.527Z,6.65
2018-12-21T10:04:57.124Z,6.65
2018-12-21T10:07:27.665Z,6.69
2018-12-21T10:09:54.619Z,6.74
2018-12-21T10:12:22.502Z,6.80
2018-12-21T10:14:51.376Z,6.79
2018-12-21T10:17:19.011Z,6.83
2018-12-21T10:19:46.588Z,6.70
2018-12-21T10:22:14.167Z,6.78
2018-12-21T10:24:41.827Z,6.86
2018-12-21T10:27:09.486Z,6.86
2018-12-21T10:29:37.085Z,6.90
2018-12-21T10:32:04.684Z,6.90
2018-12-21T10:34:32.273Z,6.88
2018-12-21T10:37:00.554Z,6.88
2018-12-21T10:39:28.343Z,6.96
2018-12-21T10:41:55.928Z,6.93
2018-12-21T10:44:23.555Z,6.91
2018-12-21T10:46:51.231Z,6.94
2018-12-21T10:49:18.826Z,6.95
2018-12-21T10:51:46.435Z,6.97
2018-12-21T10:54:14.078Z,6.98
2018-12-21T10:56:41.700Z,7.04
2018-12-21T10:59:09.455Z,7.01
2018-12-21T11:01:37.077Z,7.01
2018-12-21T11:04:04.785Z,7.00
2018-12-21T11:06:32.347Z,7.07
2018-12-21T11:09:00.135Z,7.06
2018-12-21T11:11:27.720Z,7.04
2018-12-21T11:13:56.418Z,7.08
2018-12-21T11:16:24.041Z,7.08
2018-12-21T11:18:51.760Z,7.05
2018-12-21T11:21:19.434Z,7.12
2018-12-21T11:23:47.031Z,7.13
2018-12-21T11:26:14.743Z,7.10
2018-12-21T11:28:42.412Z,7.18
2018-12-21T11:31:10.332Z,7.12
2018-12-21T11:33:37.930Z,7.15
2018-12-21T11:36:05.555Z,7.15
2018-12-21T11:38:33.177Z,7.08
2018-12-21T11:41:00.872Z,7.10
2018-12-21T11:43:28.517Z,7.03
2018-12-21T11:45:56.210Z,7.04
2018-12-21T11:48:23.903Z,7.04
2018-12-21T11:50:51.493Z,7.09
2018-12-21T11:53:19.064Z,7.06
2018-12-21T11:55:46.663Z,7.00
2018-12-21T11:58:14.418Z,7.01
2018-12-21T12:00:42.548Z,6.95
2018-12-21T12:03:10.387Z,6.99
2018-12-21T12:05:38.028Z,6.95
2018-12-21T12:08:05.780Z,7.00
2018-12-21T12:10:33.579Z,7.00
2018-12-21T12:13:01.471Z,7.00
2018-12-21T12:15:29.059Z,6.97
2018-12-21T12:17:56.751Z,6.99
2018-12-21T12:20:24.314Z,6.98
2018-12-21T12:22:52.200Z,6.97
2018-12-21T12:25:19.996Z,6.96
2018-12-21T12:27:47.616Z,6.97
2018-12-21T12:30:15.797Z,7.01
2018-12-21T12:32:43.419Z,6.95
2018-12-21T12:35:11.229Z,6.97
2018-12-21T12:37:38.775Z,6.97
2018-12-21T12:40:07.024Z,6.92
2018-12-21T12:42:34.604Z,6.94
2018-12-21T12:45:02.179Z,6.91
2018-12-21T12:47:29.758Z,6.87
2018-12-21T12:49:57.345Z,6.81
2018-12-21T12:52:25.200Z,6.82
2018-12-21T12:55:02.304Z,6.75
2018-12-21T12:57:22.397Z,6.80
2018-12-21T12:59:49.987Z,6.75
2018-12-21T13:02:17.755Z,6.69
2018-12-21T13:04:45.393Z,6.66
2018-12-21T13:07:13.044Z,6.68
2018-12-21T13:09:40.691Z,6.74
2018-12-21T13:12:08.270Z,6.74
2018-12-21T13:14:35.865Z,6.74
2018-12-21T13:17:03.524Z,6.70
2018-12-21T13:19:31.136Z,6.72
2018-12-21T13:21:58.734Z,6.66
2018-12-21T13:24:26.316Z,6.66
2018-12-21T13:26:53.918Z,6.66
2018-12-21T13:29:21.475Z,6.65
2018-12-21T13:31:49.101Z,6.63
2018-12-21T13:34:16.670Z,6.61
2018-12-21T13:36:44.310Z,6.58
2018-12-21T13:39:12.139Z,6.55
2018-12-21T13:41:39.956Z,6.58
2018-12-21T13:44:07.623Z,6.59
2018-12-21T13:46:35.164Z,6.56
2018-12-21T13:49:02.760Z,6.55
2018-12-21T13:51:30.650Z,6.53
2018-12-21T13:53:58.318Z,6.52
2018-12-21T13:56:26.292Z,6.46
2018-12-21T13:58:53.899Z,6.49
2018-12-21T14:01:21.447Z,6.51
2018-12-21T14:03:49.016Z,6.47
2018-12-21T14:06:16.612Z,6.46
2018-12-21T14:08:53.507Z,6.49
2018-12-21T14:11:23.057Z,6.53
2018-12-21T14:13:53.136Z,6.48
2018-12-21T14:16:22.916Z,6.49
2018-12-21T14:18:58.926Z,6.47
2018-12-21T14:21:26.533Z,6.45
2018-12-21T14:23:54.094Z,6.46
2018-12-21T14:26:22.024Z,6.46
2018-12-21T14:28:49.654Z,6.49
2018-12-21T14:31:17.268Z,6.46
2018-12-21T14:33:44.920Z,6.45
2018-12-21T14:36:12.595Z,6.44
2018-12-21T14:38:40.215Z,6.46
2018-12-21T14:41:07.829Z,6.44
2018-12-21T14:43:35.387Z,6.43
2018-12-21T14:46:03.032Z,6.41
2018-12-21T14:48:30.877Z,6.41
2018-12-21T14:50:58.465Z,6.42
2018-12-21T14:53:26.094Z,6.39
2018-12-21T14:55:53.691Z,6.39
2018-12-21T14:58:21.327Z,6.41
2018-12-21T15:00:48.927Z,6.39
2018-12-21T15:03:16.532Z,6.42
2018-12-21T15:05:44.085Z,6.45
2018-12-21T15:08:11.720Z,6.42
2018-12-21T15:10:39.317Z,6.37
2018-12-21T15:13:06.918Z,6.35
2018-12-21T15:15:34.513Z,6.43
2018-12-21T15:18:02.140Z,6.43
2018-12-21T15:20:29.754Z,6.44
2018-12-21T15:22:57.326Z,6.48
2018-12-21T15:25:24.914Z,6.46
2018-12-21T15:27:52.493Z,6.45
2018-12-21T15:30:20.120Z,6.43
2018-12-21T15:32:47.694Z,6.40
2018-12-21T15:35:15.656Z,6.44
2018-12-21T15:37:43.212Z,6.37
2018-12-21T15:40:10.800Z,6.40
2018-12-21T15:42:38.371Z,6.42
2018-12-21T15:45:07.010Z,6.41
2018-12-21T15:47:34.585Z,6.41
2018-12-21T15:50:02.165Z,6.46
2018-12-21T15:52:29.804Z,6.45
2018-12-21T15:54:57.388Z,6.50
2018-12-21T15:57:24.987Z,6.44
2018-12-21T15:59:52.868Z,6.45
2018-12-21T16:02:20.625Z,6.48
2018-12-21T16:04:48.318Z,6.46
2018-12-21T16:07:15.906Z,6.47
2018-12-21T16:09:43.514Z,6.48
2018-12-21T16:12:11.165Z,6.49
2018-12-21T16:14:38.800Z,6.53
2018-12-21T16:17:06.422Z,6.51
2018-12-21T16:19:34.025Z,6.57
2018-12-21T16:22:01.633Z,6.54
2018-12-21T16:24:29.216Z,6.55
2018-12-21T16:26:56.793Z,6.57
2018-12-21T16:29:24.420Z,6.55
2018-12-21T16:31:55.304Z,6.60
2018-12-21T16:34:22.924Z,6.60
2018-12-21T16:36:50.618Z,6.59
2018-12-21T16:39:18.223Z,6.58
2018-12-21T16:41:45.787Z,6.59
2018-12-21T16:44:13.807Z,6.66
2018-12-21T16:46:41.399Z,6.62
2018-12-21T16:49:09.257Z,6.62
2018-12-21T16:51:36.877Z,6.68
2018-12-21T16:54:04.480Z,6.65
2018-12-21T16:56:32.258Z,6.73
2018-12-21T16:58:59.981Z,6.72
2018-12-21T17:01:27.621Z,6.71
2018-12-21T17:03:55.237Z,6.75
2018-12-21T17:06:22.814Z,6.72
2018-12-21T17:08:50.700Z,6.76
2018-12-21T17:11:18.324Z,6.79
2018-12-21T17:13:45.988Z,6.76
2018-12-21T17:16:13.606Z,6.72
2018-12-21T17:18:41.214Z,6.71
2018-12-21T17:21:08.789Z,6.72
2018-12-21T17:23:36.398Z,6.77
2018-12-21T17:26:03.988Z,6.78
2018-12-21T17:28:32.277Z,6.78
2018-12-21T17:30:59.987Z,6.77
2018-12-21T17:33:27.583Z,6.80
2018-12-21T17:35:55.198Z,6.78
2018-12-21T17:38:22.884Z,6.84
2018-12-21T17:40:50.986Z,6.82
2018-12-21T17:43:18.571Z,6.84
2018-12-21T17:45:51.112Z,6.85
2018-12-21T17:48:18.825Z,6.92
2018-12-21T17:50:46.459Z,6.94
2018-12-21T17:53:14.078Z,6.98
2018-12-21T17:55:41.669Z,6.99
2018-12-21T17:58:09.358Z,7.05
2018-12-21T18:00:37.115Z,7.08
2018-12-21T18:03:04.813Z,7.11
2018-12-21T18:05:32.536Z,7.15
2018-12-21T18:08:00.107Z,7.16
2018-12-21T18:10:27.897Z,7.22
2018-12-21T18:12:55.490Z,7.29
2018-12-21T18:15:23.118Z,7.32
2018-12-21T18:17:50.740Z,7.37
2018-12-21T18:20:18.326Z,7.39
2018-12-21T18:22:45.947Z,7.47
2018-12-21T18:25:13.562Z,7.48
2018-12-21T18:27:41.179Z,7.56
2018-12-21T18:30:18.647Z,7.62
2018-12-21T18:32:46.471Z,7.63
2018-12-21T18:35:14.293Z,7.69
2018-12-21T18:37:45.274Z,7.84
2018-12-21T18:40:12.861Z,7.91
2018-12-21T18:42:40.514Z,7.98
2018-12-21T18:45:08.985Z,7.93
2018-12-21T18:47:36.591Z,7.99
2018-12-21T18:50:06.841Z,8.01
2018-12-21T18:52:34.498Z,8.03
2018-12-21T18:55:02.146Z,8.11
2018-12-21T18:57:30.147Z,8.15
2018-12-21T18:59:57.747Z,8.25
2018-12-21T19:02:25.388Z,8.23
2018-12-21T19:04:52.964Z,8.25
2018-12-21T19:07:22.081Z,8.39
2018-12-21T19:09:49.872Z,8.39
2018-12-21T19:12:17.457Z,8.44
2018-12-21T19:14:45.000Z,8.51
2018-12-21T19:17:12.610Z,8.55
2018-12-21T19:19:40.204Z,8.60
2018-12-21T19:22:07.817Z,8.65
2018-12-21T19:24:35.409Z,8.69
2018-12-21T19:27:03.001Z,8.65
2018-12-21T19:29:30.573Z,8.65
2018-12-21T19:31:58.155Z,8.67
2018-12-21T19:34:25.747Z,8.69
2018-12-21T19:36:53.324Z,8.70
2018-12-21T19:39:20.930Z,8.71
2018-12-21T19:41:48.596Z,8.72
2018-12-21T19:44:16.194Z,8.66
2018-12-21T19:46:43.934Z,8.70
2018-12-21T19:49:11.625Z,8.73
2018-12-21T19:51:39.389Z,8.67
2018-12-21T19:54:07.108Z,8.67
2018-12-21T19:56:38.254Z,8.62
2018-12-21T19:59:05.826Z,8.61
2018-12-21T20:01:33.528Z,8.63
2018-12-21T20:04:01.116Z,8.63
2018-12-21T20:06:28.713Z,8.63
2018-12-21T20:08:56.293Z,8.60
2018-12-21T20:11:23.861Z,8.64
2018-12-21T20:13:51.532Z,8.64
2018-12-21T20:16:20.343Z,8.72
2018-12-21T20:18:47.932Z,8.72
2018-12-21T20:21:15.514Z,8.72
2018-12-21T20:23:43.106Z,8.76
2018-12-21T20:26:11.080Z,8.74
2018-12-21T20:28:38.867Z,8.74
2018-12-21T20:31:06.647Z,8.73
2018-12-21T20:33:34.347Z,8.73
2018-12-21T20:36:02.022Z,8.77
2018-12-21T20:38:29.621Z,8.80
2018-12-21T20:40:59.117Z,8.87
2018-12-21T20:43:26.718Z,8.91
2018-12-21T20:45:54.285Z,8.94
2018-12-21T20:48:21.875Z,8.96
2018-12-21T20:50:49.550Z,8.96
2018-12-21T20:53:17.192Z,9.03
2018-12-21T20:55:44.839Z,9.08
2018-12-21T20:58:14.140Z,9.09
2018-12-21T21:00:41.874Z,9.08
2018-12-21T21:03:09.557Z,9.17
2018-12-21T21:05:37.145Z,9.20
2018-12-21T21:08:04.770Z,9.28
2018-12-21T21:10:32.382Z,9.26
2018-12-21T21:13:00.103Z,9.25
2018-12-21T21:15:28.133Z,9.34
2018-12-21T21:17:56.002Z,9.33
2018-12-21T21:20:23.630Z,9.37
2018-12-21T21:22:51.220Z,9.48
2018-12-21T21:25:22.431Z,9.63
2018-12-21T21:27:50.464Z,9.65
2018-12-21T21:30:19.624Z,9.68
2018-12-21T21:32:47.397Z,9.73
2018-12-21T21:35:15.305Z,9.68
2018-12-21T21:37:43.270Z,9.69
2018-12-21T21:40:15.486Z,9.80
2018-12-21T21:42:44.728Z,9.84
2018-12-21T21:45:12.703Z,9.87
2018-12-21T21:47:40.350Z,9.84
2018-12-21T21:50:09.818Z,9.89
2018-12-21T21:52:37.486Z,9.88
2018-12-21T21:55:05.714Z,9.94
2018-12-21T21:57:39.192Z,9.95
2018-12-21T22:00:08.965Z,9.99
2018-12-21T22:02:36.893Z,10.03
2018-12-21T22:05:04.752Z,9.99
2018-12-21T22:07:33.699Z,10.00
2018-12-21T22:10:01.540Z,10.01
2018-12-21T22:12:29.220Z,10.02
2018-12-21T22:14:57.537Z,9.97
2018-12-21T22:17:25.120Z,10.00
2018-12-21T22:19:52.681Z,10.05
2018-12-21T22:22:20.253Z,10.06
2018-12-21T22:24:47.847Z,9.99
2018-12-21T22:27:15.424Z,9.99
2018-12-21T22:29:42.990Z,9.95
2018-12-21T22:32:10.599Z,9.88
2018-12-21T22:34:38.212Z,9.84
2018-12-21T22:37:05.816Z,9.81
2018-12-21T22:39:33.405Z,9.82
2018-12-21T22:42:01.113Z,9.79
2018-12-21T22:44:28.768Z,9.73
2018-12-21T22:46:56.410Z,9.67
2018-12-21T22:49:23.982Z,9.62
2018-12-21T22:51:51.585Z,9.54
2018-12-21T22:54:19.229Z,9.47
2018-12-21T22:56:46.785Z,9.46
2018-12-21T22:59:14.341Z,9.42
2018-12-21T23:01:41.919Z,9.31
2018-12-21T23:04:09.491Z,9.25
2018-12-21T23:06:37.099Z,9.24
2018-12-21T23:09:05.684Z,9.24
2018-12-21T23:11:33.391Z,9.20
2018-12-21T23:14:00.955Z,9.19
2018-12-21T23:16:28.535Z,9.19
2018-12-21T23:18:56.119Z,9.21
2018-12-21T23:21:23.690Z,9.19
2018-12-21T23:23:51.240Z,9.21
2018-12-21T23:26:19.259Z,9.21
2018-12-21T23:28:46.883Z,9.28
2018-12-21T23:31:14.511Z,9.22
2018-12-21T23:33:42.297Z,9.16
2018-12-21T23:36:09.883Z,9.14
2018-12-21T23:38:37.447Z,9.13
2018-12-21T23:41:05.042Z,9.15
2018-12-21T23:43:32.776Z,9.16
2018-12-21T23:46:00.399Z,9.25
2018-12-21T23:48:27.998Z,9.31
2018-12-21T23:50:55.868Z,9.34
2018-12-21T23:53:23.525Z,9.38
2018-12-21T23:55:51.114Z,9.37
2018-12-21T23:58:18.680Z,9.37
